createdAt,value
2023-08-31T00:36:03.931Z,11.44
2023-08-31T00:40:14.022Z,11.31
2023-08-31T00:44:25.788Z,11.19
2023-08-31T00:48:37.992Z,11.32
2023-08-31T00:52:46.952Z,11.27
2023-08-31T08:32:18.829Z,18.60
2023-08-31T08:36:26.831Z,18.71
2023-08-31T08:40:34.972Z,18.46
2023-08-31T08:44:37.389Z,18.72
2023-08-31T08:49:14.913Z,18.95
2023-08-31T09:03:40.904Z,19.35
2023-08-31T09:12:40.069Z,19.48
2023-08-31T09:16:48.996Z,19.72
2023-08-31T09:21:23.003Z,19.78
2023-08-31T09:45:20.498Z,19.88
2023-08-31T09:50:18.897Z,20.03
2023-08-31T12:28:23.981Z,21.75
2023-08-31T12:32:45.997Z,21.50
2023-08-31T12:36:47.590Z,21.79
2023-08-31T12:40:55.995Z,21.76
2023-08-31T12:45:23.016Z,21.96
2023-08-31T13:19:36.090Z,22.24
2023-08-31T14:07:31.171Z,22.42
2023-08-31T14:11:39.013Z,22.44
2023-08-31T15:58:44.043Z,17.58
2023-08-31T16:02:52.060Z,17.65
2023-08-31T16:07:00.235Z,17.77
2023-08-31T16:11:04.804Z,17.93
2023-08-31T16:15:14.117Z,17.62
2023-08-31T16:33:08.317Z,17.85
2023-08-31T16:37:09.901Z,17.77
2023-08-31T16:41:18.185Z,17.75
2023-08-31T16:45:25.996Z,17.45
2023-08-31T16:49:34.014Z,17.48
2023-08-31T16:53:46.186Z,17.64
2023-08-31T16:57:53.993Z,17.48
2023-08-31T17:02:16.273Z,17.38
2023-08-31T17:06:23.988Z,17.70
2023-08-31T17:10:25.624Z,17.88
2023-08-31T17:14:34.102Z,17.98
2023-08-31T17:43:23.998Z,18.21
2023-08-31T17:47:39.018Z,18.20
2023-08-31T17:51:42.663Z,18.18
2023-08-31T17:55:51.033Z,18.09
2023-08-31T18:05:15.114Z,18.03
2023-08-31T18:09:37.706Z,17.84
2023-08-31T18:13:46.111Z,17.75
2023-08-31T18:18:08.078Z,17.57
2023-08-31T18:22:09.739Z,17.52
2023-08-31T19:01:45.079Z,16.61
2023-08-31T20:02:40.485Z,15.34
2023-08-31T20:06:42.175Z,15.23
2023-08-31T20:10:51.385Z,15.15
2023-08-31T20:14:53.284Z,15.08
2023-08-31T20:19:03.353Z,14.94
2023-08-31T20:23:05.279Z,14.84
2023-08-31T20:27:13.385Z,14.74
2023-08-31T20:31:36.366Z,14.73
2023-08-31T20:35:45.335Z,14.60
2023-08-31T20:39:46.826Z,14.59
2023-08-31T20:43:54.498Z,14.45
2023-08-31T20:48:02.506Z,14.37
2023-08-31T20:52:11.404Z,14.31
2023-08-31T20:56:14.196Z,14.23
2023-08-31T21:00:22.468Z,14.14
2023-08-31T21:04:23.995Z,14.15
2023-08-31T21:08:34.401Z,13.97
2023-08-31T21:12:35.959Z,13.96
2023-08-31T21:16:44.421Z,13.92
2023-08-31T21:20:45.991Z,13.87
2023-08-31T21:24:54.409Z,13.82
2023-08-31T21:29:02.589Z,13.75
2023-08-31T21:33:12.371Z,13.63
2023-08-31T21:37:14.011Z,13.63
2023-08-31T21:41:22.363Z,13.53
2023-08-31T21:45:32.438Z,13.52
2023-08-31T21:49:34.179Z,13.54
2023-08-31T21:53:42.386Z,13.48
2023-08-31T21:57:45.513Z,13.42
2023-08-31T22:01:53.373Z,13.18
2023-08-31T22:05:55.186Z,13.28
2023-08-31T22:10:03.548Z,13.32
2023-08-31T22:14:05.400Z,13.20
2023-08-31T22:18:13.688Z,13.23
2023-08-31T22:22:22.458Z,13.25
2023-08-31T22:26:32.391Z,13.11
2023-08-31T22:30:48.500Z,13.16
2023-08-31T22:34:56.410Z,13.08
2023-08-31T22:39:04.433Z,13.10
2023-08-31T22:43:12.526Z,13.03
2023-08-31T22:47:14.218Z,13.00
2023-08-31T22:51:22.535Z,12.87
2023-08-31T22:55:24.314Z,12.95
2023-08-31T22:59:32.528Z,12.85
2023-08-31T23:03:40.511Z,12.88
2023-08-31T23:07:42.396Z,12.87
2023-08-31T23:11:50.474Z,12.85
2023-08-31T23:15:58.640Z,12.76
2023-08-31T23:20:06.455Z,12.66
2023-08-31T23:24:09.031Z,12.80
2023-08-31T23:28:17.472Z,12.79
2023-08-31T23:32:32.450Z,12.82
2023-08-31T23:36:33.999Z,12.74
2023-08-31T23:40:42.516Z,12.81
2023-08-31T23:44:50.395Z,12.79
2023-08-31T23:48:58.454Z,12.79
2023-08-31T23:53:00.005Z,12.79
2023-08-31T23:57:09.466Z,12.75
